ダーウィン の空港の天気 - METARとTAF

ダーウィン国際空港 ( YPDN / DRW ) - オーストラリア ノーザンテリトリーダーウィン
飛行場実況気象(Metar)
観測時間01/20 00:30 ACST (01/19 15:00 UTC)
風向・風速南東 2m/s
視程10km以上
天気現象
少しの雲 雲底高度 370m
全天の4割程度の雲 雲底高度 9140m
全天の8割程度の雲 雲底高度 10970m
気温26℃
湿度94%
気圧1007hPa
METARYPDN 191500Z 13003KT 9999 FEW012 SCT300 BKN360 26/25 Q1007
過去の天気等 Google飛行場航空写真 Wunderground天気予報

過去48時間のMETAR

飛行場予報(TAF)
発表時間: 1/19 21:03 ACST (1/19 11:33 UTC)
予報対象時間: 19日21時 ACST ~ 21日3時 ACST
風向・風速不定 2m/s
視程10km以上
少しの雲 雲底高度 300m
全天の4割程度の雲 雲底高度 610m
20日9時 ACST から
風向・風速北東 3m/s
視程10km以上
全天の4割程度の雲 雲底高度 760m
21日0時 ACST から
風向・風速不定 2m/s
視程10km以上
少しの雲 雲底高度 300m
全天の4割程度の雲 雲底高度 610m
20日12時 ACST ~ 20日21時 ACST に 確率 30% で一時的に
風向・風速不定 13m/s 瞬間風速 21m/s
視程1000m
天気現象雷雨
全天の8割程度の雲 雲底高度 300m
全天の4割程度の積乱雲 雲底高度 610m
TAF AMD YPDN 191133Z 1912/2018 VRB03KT 9999 FEW010 SCT020
FM200000 04006KT 9999 SCT025
FM201500 VRB03KT 9999 FEW010 SCT020
PROB30 TEMPO 2003/2012 VRB25G40KT 1000 TSRA BKN010 SCT020CB